sensor_id;sensor_type;location;lat;lon;timestamp;P1;durP1;ratioP1;P2;durP2;ratioP2
32491;SDS011;20605;49.742;18.802;2022-10-04T00:01:57;8.15;;;4.50;;
32491;SDS011;20605;49.742;18.802;2022-10-04T00:04:43;9.00;;;3.80;;
32491;SDS011;20605;49.742;18.802;2022-10-04T00:07:17;9.18;;;4.10;;
32491;SDS011;20605;49.742;18.802;2022-10-04T00:09:54;3.55;;;2.75;;
32491;SDS011;20605;49.742;18.802;2022-10-04T00:14:59;9.38;;;3.95;;
32491;SDS011;20605;49.742;18.802;2022-10-04T00:17:30;5.00;;;3.40;;
32491;SDS011;20605;49.742;18.802;2022-10-04T00:20:00;7.05;;;3.22;;
32491;SDS011;20605;49.742;18.802;2022-10-04T00:22:33;8.10;;;3.50;;
32491;SDS011;20605;49.742;18.802;2022-10-04T00:27:39;7.17;;;3.40;;
32491;SDS011;20605;49.742;18.802;2022-10-04T00:30:38;8.48;;;3.72;;
32491;SDS011;20605;49.742;18.802;2022-10-04T00:33:03;8.45;;;3.58;;
32491;SDS011;20605;49.742;18.802;2022-10-04T00:38:12;8.93;;;4.28;;
32491;SDS011;20605;49.742;18.802;2022-10-04T00:40:51;13.20;;;4.72;;
32491;SDS011;20605;49.742;18.802;2022-10-04T00:43:25;12.55;;;4.33;;
32491;SDS011;20605;49.742;18.802;2022-10-04T00:46:00;8.25;;;3.58;;
32491;SDS011;20605;49.742;18.802;2022-10-04T00:48:40;10.48;;;4.30;;
32491;SDS011;20605;49.742;18.802;2022-10-04T00:51:21;6.65;;;3.02;;
32491;SDS011;20605;49.742;18.802;2022-10-04T00:54:13;8.50;;;3.65;;
32491;SDS011;20605;49.742;18.802;2022-10-04T00:57:01;9.73;;;4.00;;
32491;SDS011;20605;49.742;18.802;2022-10-04T01:00:07;8.20;;;4.27;;
32491;SDS011;20605;49.742;18.802;2022-10-04T01:02:37;13.18;;;4.75;;
32491;SDS011;20605;49.742;18.802;2022-10-04T01:10:44;11.30;;;4.95;;
32491;SDS011;20605;49.742;18.802;2022-10-04T01:13:21;7.67;;;3.85;;
32491;SDS011;20605;49.742;18.802;2022-10-04T01:16:13;8.13;;;3.58;;
32491;SDS011;20605;49.742;18.802;2022-10-04T01:18:45;11.45;;;3.17;;
32491;SDS011;20605;49.742;18.802;2022-10-04T01:26:39;9.38;;;2.98;;
32491;SDS011;20605;49.742;18.802;2022-10-04T01:29:22;8.00;;;2.70;;
32491;SDS011;20605;49.742;18.802;2022-10-04T01:31:52;5.17;;;3.05;;
32491;SDS011;20605;49.742;18.802;2022-10-04T01:34:23;8.00;;;3.30;;
32491;SDS011;20605;49.742;18.802;2022-10-04T01:36:53;8.78;;;3.40;;
32491;SDS011;20605;49.742;18.802;2022-10-04T01:39:24;7.33;;;3.45;;
32491;SDS011;20605;49.742;18.802;2022-10-04T01:44:43;9.95;;;3.17;;
32491;SDS011;20605;49.742;18.802;2022-10-04T01:47:20;5.80;;;2.58;;
32491;SDS011;20605;49.742;18.802;2022-10-04T01:49:50;8.38;;;2.75;;
32491;SDS011;20605;49.742;18.802;2022-10-04T01:52:23;6.90;;;2.92;;
32491;SDS011;20605;49.742;18.802;2022-10-04T01:55:09;5.25;;;2.80;;
32491;SDS011;20605;49.742;18.802;2022-10-04T01:57:55;6.83;;;2.85;;
32491;SDS011;20605;49.742;18.802;2022-10-04T02:00:27;7.83;;;3.00;;
32491;SDS011;20605;49.742;18.802;2022-10-04T02:02:57;11.03;;;3.02;;
32491;SDS011;20605;49.742;18.802;2022-10-04T02:05:32;9.48;;;2.98;;
32491;SDS011;20605;49.742;18.802;2022-10-04T02:08:12;10.23;;;3.55;;
32491;SDS011;20605;49.742;18.802;2022-10-04T02:10:42;11.88;;;3.10;;
32491;SDS011;20605;49.742;18.802;2022-10-04T02:13:11;9.90;;;3.40;;
32491;SDS011;20605;49.742;18.802;2022-10-04T02:15:42;9.43;;;3.58;;
32491;SDS011;20605;49.742;18.802;2022-10-04T02:18:10;11.95;;;3.27;;
32491;SDS011;20605;49.742;18.802;2022-10-04T02:20:43;7.58;;;2.85;;
32491;SDS011;20605;49.742;18.802;2022-10-04T02:23:12;8.78;;;2.90;;
32491;SDS011;20605;49.742;18.802;2022-10-04T02:25:42;9.73;;;3.27;;
32491;SDS011;20605;49.742;18.802;2022-10-04T02:28:09;7.72;;;2.87;;
32491;SDS011;20605;49.742;18.802;2022-10-04T02:30:40;5.45;;;2.77;;
32491;SDS011;20605;49.742;18.802;2022-10-04T02:33:16;6.30;;;2.87;;
32491;SDS011;20605;49.742;18.802;2022-10-04T02:35:44;7.83;;;3.10;;
32491;SDS011;20605;49.742;18.802;2022-10-04T02:38:20;9.25;;;3.20;;
32491;SDS011;20605;49.742;18.802;2022-10-04T02:41:01;6.42;;;3.52;;
32491;SDS011;20605;49.742;18.802;2022-10-04T02:43:34;7.60;;;3.47;;
32491;SDS011;20605;49.742;18.802;2022-10-04T02:46:24;6.97;;;3.22;;
32491;SDS011;20605;49.742;18.802;2022-10-04T02:49:01;10.98;;;3.70;;
32491;SDS011;20605;49.742;18.802;2022-10-04T02:54:29;9.93;;;2.57;;
32491;SDS011;20605;49.742;18.802;2022-10-04T02:56:56;7.58;;;3.05;;
32491;SDS011;20605;49.742;18.802;2022-10-04T02:59:24;7.10;;;3.08;;
32491;SDS011;20605;49.742;18.802;2022-10-04T03:01:56;7.33;;;3.12;;
32491;SDS011;20605;49.742;18.802;2022-10-04T03:04:30;5.22;;;2.80;;
32491;SDS011;20605;49.742;18.802;2022-10-04T03:06:59;6.30;;;2.90;;
32491;SDS011;20605;49.742;18.802;2022-10-04T03:09:30;7.70;;;3.95;;
32491;SDS011;20605;49.742;18.802;2022-10-04T03:11:57;6.75;;;4.03;;
32491;SDS011;20605;49.742;18.802;2022-10-04T03:14:25;7.72;;;4.72;;
32491;SDS011;20605;49.742;18.802;2022-10-04T03:16:54;9.83;;;3.77;;
32491;SDS011;20605;49.742;18.802;2022-10-04T03:19:25;7.35;;;3.37;;
32491;SDS011;20605;49.742;18.802;2022-10-04T03:21:55;4.58;;;3.33;;
32491;SDS011;20605;49.742;18.802;2022-10-04T03:24:35;7.33;;;3.58;;
32491;SDS011;20605;49.742;18.802;2022-10-04T03:27:06;6.28;;;3.08;;
32491;SDS011;20605;49.742;18.802;2022-10-04T03:29:38;6.35;;;2.70;;
32491;SDS011;20605;49.742;18.802;2022-10-04T03:32:08;6.40;;;3.50;;
32491;SDS011;20605;49.742;18.802;2022-10-04T03:34:38;7.55;;;2.80;;
32491;SDS011;20605;49.742;18.802;2022-10-04T03:37:13;8.90;;;3.17;;
32491;SDS011;20605;49.742;18.802;2022-10-04T03:39:45;5.92;;;2.83;;
32491;SDS011;20605;49.742;18.802;2022-10-04T03:42:18;5.50;;;2.87;;
32491;SDS011;20605;49.742;18.802;2022-10-04T03:44:49;6.90;;;2.92;;
32491;SDS011;20605;49.742;18.802;2022-10-04T03:47:28;6.60;;;2.95;;
32491;SDS011;20605;49.742;18.802;2022-10-04T03:50:00;7.65;;;3.35;;
32491;SDS011;20605;49.742;18.802;2022-10-04T03:52:43;4.92;;;2.95;;
32491;SDS011;20605;49.742;18.802;2022-10-04T03:55:15;7.40;;;3.12;;
32491;SDS011;20605;49.742;18.802;2022-10-04T03:57:43;7.90;;;3.20;;
32491;SDS011;20605;49.742;18.802;2022-10-04T04:00:14;9.40;;;3.58;;
32491;SDS011;20605;49.742;18.802;2022-10-04T04:02:43;7.83;;;3.30;;
32491;SDS011;20605;49.742;18.802;2022-10-04T04:05:35;7.22;;;3.05;;
32491;SDS011;20605;49.742;18.802;2022-10-04T04:08:06;7.35;;;3.47;;
32491;SDS011;20605;49.742;18.802;2022-10-04T04:10:52;11.25;;;3.40;;
32491;SDS011;20605;49.742;18.802;2022-10-04T04:13:24;11.53;;;3.72;;
32491;SDS011;20605;49.742;18.802;2022-10-04T04:16:00;8.28;;;3.47;;
32491;SDS011;20605;49.742;18.802;2022-10-04T04:18:32;11.78;;;4.12;;
32491;SDS011;20605;49.742;18.802;2022-10-04T04:21:00;7.37;;;3.33;;
32491;SDS011;20605;49.742;18.802;2022-10-04T04:29:15;7.57;;;3.23;;
32491;SDS011;20605;49.742;18.802;2022-10-04T04:32:03;9.28;;;3.08;;
32491;SDS011;20605;49.742;18.802;2022-10-04T04:34:52;8.90;;;3.25;;
32491;SDS011;20605;49.742;18.802;2022-10-04T04:37:27;8.75;;;3.35;;
32491;SDS011;20605;49.742;18.802;2022-10-04T04:39:54;9.15;;;3.42;;
32491;SDS011;20605;49.742;18.802;2022-10-04T04:42:32;11.93;;;3.33;;
32491;SDS011;20605;49.742;18.802;2022-10-04T04:45:03;8.25;;;3.70;;
32491;SDS011;20605;49.742;18.802;2022-10-04T04:47:45;11.15;;;3.87;;
32491;SDS011;20605;49.742;18.802;2022-10-04T04:50:18;11.08;;;4.10;;
32491;SDS011;20605;49.742;18.802;2022-10-04T04:52:54;10.30;;;4.22;;
32491;SDS011;20605;49.742;18.802;2022-10-04T04:55:46;7.15;;;3.95;;
32491;SDS011;20605;49.742;18.802;2022-10-04T04:58:23;9.78;;;4.33;;
32491;SDS011;20605;49.742;18.802;2022-10-04T05:01:41;11.03;;;4.12;;
32491;SDS011;20605;49.742;18.802;2022-10-04T05:03:41;10.13;;;4.28;;
32491;SDS011;20605;49.742;18.802;2022-10-04T05:06:24;10.25;;;4.03;;
32491;SDS011;20605;49.742;18.802;2022-10-04T05:08:52;9.43;;;3.70;;
32491;SDS011;20605;49.742;18.802;2022-10-04T05:11:19;7.95;;;3.33;;
32491;SDS011;20605;49.742;18.802;2022-10-04T05:16:26;8.60;;;4.40;;
32491;SDS011;20605;49.742;18.802;2022-10-04T05:19:04;11.20;;;4.30;;
32491;SDS011;20605;49.742;18.802;2022-10-04T05:21:34;10.78;;;4.45;;
32491;SDS011;20605;49.742;18.802;2022-10-04T05:24:08;13.88;;;4.28;;
32491;SDS011;20605;49.742;18.802;2022-10-04T05:26:54;11.03;;;4.03;;
32491;SDS011;20605;49.742;18.802;2022-10-04T05:29:32;12.85;;;4.05;;
32491;SDS011;20605;49.742;18.802;2022-10-04T05:35:15;14.75;;;4.50;;
32491;SDS011;20605;49.742;18.802;2022-10-04T05:37:58;10.80;;;4.50;;
32491;SDS011;20605;49.742;18.802;2022-10-04T05:40:55;10.82;;;4.45;;
32491;SDS011;20605;49.742;18.802;2022-10-04T05:43:49;10.50;;;4.30;;
32491;SDS011;20605;49.742;18.802;2022-10-04T05:49:06;11.25;;;4.25;;
32491;SDS011;20605;49.742;18.802;2022-10-04T05:54:29;12.53;;;4.20;;
32491;SDS011;20605;49.742;18.802;2022-10-04T06:00:13;11.33;;;4.00;;
32491;SDS011;20605;49.742;18.802;2022-10-04T06:11:44;13.72;;;4.87;;
32491;SDS011;20605;49.742;18.802;2022-10-04T06:14:26;10.48;;;4.20;;
32491;SDS011;20605;49.742;18.802;2022-10-04T06:17:19;12.82;;;5.00;;
32491;SDS011;20605;49.742;18.802;2022-10-04T06:22:34;7.75;;;3.37;;
32491;SDS011;20605;49.742;18.802;2022-10-04T06:25:12;11.88;;;4.28;;
32491;SDS011;20605;49.742;18.802;2022-10-04T06:28:15;9.55;;;3.85;;
32491;SDS011;20605;49.742;18.802;2022-10-04T06:39:48;8.43;;;3.17;;
32491;SDS011;20605;49.742;18.802;2022-10-04T07:02:49;5.70;;;2.92;;
32491;SDS011;20605;49.742;18.802;2022-10-04T07:14:25;7.10;;;2.87;;
32491;SDS011;20605;49.742;18.802;2022-10-04T07:17:00;7.25;;;2.90;;
32491;SDS011;20605;49.742;18.802;2022-10-04T07:19:31;5.35;;;2.33;;
32491;SDS011;20605;49.742;18.802;2022-10-04T07:22:13;8.10;;;3.33;;
32491;SDS011;20605;49.742;18.802;2022-10-04T07:27:33;9.98;;;3.95;;
32491;SDS011;20605;49.742;18.802;2022-10-04T07:30:17;7.97;;;3.10;;
32491;SDS011;20605;49.742;18.802;2022-10-04T07:32:43;6.12;;;2.72;;
32491;SDS011;20605;49.742;18.802;2022-10-04T07:35:15;7.33;;;3.15;;
32491;SDS011;20605;49.742;18.802;2022-10-04T07:38:07;9.43;;;3.30;;
32491;SDS011;20605;49.742;18.802;2022-10-04T07:41:00;9.15;;;2.92;;
32491;SDS011;20605;49.742;18.802;2022-10-04T07:43:54;10.35;;;3.00;;
32491;SDS011;20605;49.742;18.802;2022-10-04T07:49:13;8.35;;;4.35;;
32491;SDS011;20605;49.742;18.802;2022-10-04T07:52:01;9.23;;;3.55;;
32491;SDS011;20605;49.742;18.802;2022-10-04T07:54:37;7.25;;;2.83;;
32491;SDS011;20605;49.742;18.802;2022-10-04T08:00:22;6.40;;;3.00;;
32491;SDS011;20605;49.742;18.802;2022-10-04T08:20:19;9.45;;;4.20;;
32491;SDS011;20605;49.742;18.802;2022-10-04T08:23:19;6.97;;;3.08;;
32491;SDS011;20605;49.742;18.802;2022-10-04T08:26:08;8.53;;;3.10;;
32491;SDS011;20605;49.742;18.802;2022-10-04T08:29:03;8.63;;;3.47;;
32491;SDS011;20605;49.742;18.802;2022-10-04T08:49:39;5.47;;;3.85;;
32491;SDS011;20605;49.742;18.802;2022-10-04T08:56:06;6.50;;;2.98;;
32491;SDS011;20605;49.742;18.802;2022-10-04T08:58:53;6.45;;;2.90;;
32491;SDS011;20605;49.742;18.802;2022-10-04T09:07:27;6.70;;;3.20;;
32491;SDS011;20605;49.742;18.802;2022-10-04T09:13:04;4.60;;;2.17;;
32491;SDS011;20605;49.742;18.802;2022-10-04T09:27:17;2.90;;;2.17;;
32491;SDS011;20605;49.742;18.802;2022-10-04T09:30:18;3.60;;;2.30;;
32491;SDS011;20605;49.742;18.802;2022-10-04T09:33:23;3.35;;;2.40;;
32491;SDS011;20605;49.742;18.802;2022-10-04T09:42:17;5.33;;;2.52;;
32491;SDS011;20605;49.742;18.802;2022-10-04T09:45:17;2.42;;;2.00;;
32491;SDS011;20605;49.742;18.802;2022-10-04T09:48:13;3.83;;;2.42;;
32491;SDS011;20605;49.742;18.802;2022-10-04T10:08:52;3.75;;;2.50;;
32491;SDS011;20605;49.742;18.802;2022-10-04T10:10:44;4.20;;;2.45;;
32491;SDS011;20605;49.742;18.802;2022-10-04T10:25:33;7.67;;;3.30;;
32491;SDS011;20605;49.742;18.802;2022-10-04T10:48:34;5.42;;;2.22;;
32491;SDS011;20605;49.742;18.802;2022-10-04T10:51:08;7.65;;;2.12;;
32491;SDS011;20605;49.742;18.802;2022-10-04T11:03:08;8.60;;;4.08;;
32491;SDS011;20605;49.742;18.802;2022-10-04T11:43:01;5.87;;;1.85;;
32491;SDS011;20605;49.742;18.802;2022-10-04T11:51:55;5.08;;;2.17;;
32491;SDS011;20605;49.742;18.802;2022-10-04T11:54:58;5.12;;;2.10;;
32491;SDS011;20605;49.742;18.802;2022-10-04T11:57:42;3.72;;;2.00;;
32491;SDS011;20605;49.742;18.802;2022-10-04T12:00:16;3.72;;;1.95;;
32491;SDS011;20605;49.742;18.802;2022-10-04T12:02:54;4.70;;;2.12;;
32491;SDS011;20605;49.742;18.802;2022-10-04T12:26:02;1.90;;;1.80;;
32491;SDS011;20605;49.742;18.802;2022-10-04T12:28:33;3.35;;;1.80;;
32491;SDS011;20605;49.742;18.802;2022-10-04T12:39:28;3.87;;;1.95;;
32491;SDS011;20605;49.742;18.802;2022-10-04T13:20:12;4.30;;;2.00;;
32491;SDS011;20605;49.742;18.802;2022-10-04T13:34:31;6.00;;;2.37;;
32491;SDS011;20605;49.742;18.802;2022-10-04T13:58:46;4.95;;;2.40;;
32491;SDS011;20605;49.742;18.802;2022-10-04T14:30:15;8.38;;;3.70;;
32491;SDS011;20605;49.742;18.802;2022-10-04T14:35:32;7.37;;;2.80;;
32491;SDS011;20605;49.742;18.802;2022-10-04T14:41:37;7.10;;;3.52;;
32491;SDS011;20605;49.742;18.802;2022-10-04T14:44:28;8.35;;;3.90;;
32491;SDS011;20605;49.742;18.802;2022-10-04T14:47:26;9.35;;;3.15;;
32491;SDS011;20605;49.742;18.802;2022-10-04T15:02:03;9.28;;;2.83;;
32491;SDS011;20605;49.742;18.802;2022-10-04T15:13:36;35.15;;;30.40;;
32491;SDS011;20605;49.742;18.802;2022-10-04T15:16:34;234.85;;;132.12;;
32491;SDS011;20605;49.742;18.802;2022-10-04T15:24:47;416.50;;;214.65;;
32491;SDS011;20605;49.742;18.802;2022-10-04T15:30:28;182.62;;;98.35;;
32491;SDS011;20605;49.742;18.802;2022-10-04T15:33:12;222.07;;;129.57;;
32491;SDS011;20605;49.742;18.802;2022-10-04T15:35:48;108.45;;;65.08;;
32491;SDS011;20605;49.742;18.802;2022-10-04T15:38:27;58.65;;;46.95;;
32491;SDS011;20605;49.742;18.802;2022-10-04T15:41:25;53.60;;;41.28;;
32491;SDS011;20605;49.742;18.802;2022-10-04T15:44:42;93.40;;;40.35;;
32491;SDS011;20605;49.742;18.802;2022-10-04T15:48:04;141.73;;;58.50;;
32491;SDS011;20605;49.742;18.802;2022-10-04T15:54:02;220.75;;;92.55;;
32491;SDS011;20605;49.742;18.802;2022-10-04T15:56:53;255.90;;;107.05;;
32491;SDS011;20605;49.742;18.802;2022-10-04T15:59:25;293.33;;;126.62;;
32491;SDS011;20605;49.742;18.802;2022-10-04T16:10:51;80.05;;;31.37;;
32491;SDS011;20605;49.742;18.802;2022-10-04T16:22:16;26.68;;;15.03;;
32491;SDS011;20605;49.742;18.802;2022-10-04T16:32:40;15.10;;;8.80;;
32491;SDS011;20605;49.742;18.802;2022-10-04T16:35:34;16.75;;;8.10;;
32491;SDS011;20605;49.742;18.802;2022-10-04T16:43:24;22.02;;;11.45;;
32491;SDS011;20605;49.742;18.802;2022-10-04T16:48:48;17.75;;;10.72;;
32491;SDS011;20605;49.742;18.802;2022-10-04T16:57:20;16.30;;;10.80;;
32491;SDS011;20605;49.742;18.802;2022-10-04T16:59:57;26.55;;;14.03;;
32491;SDS011;20605;49.742;18.802;2022-10-04T17:02:35;35.48;;;18.37;;
32491;SDS011;20605;49.742;18.802;2022-10-04T17:13:45;102.78;;;55.98;;
32491;SDS011;20605;49.742;18.802;2022-10-04T17:16:18;60.58;;;34.23;;
32491;SDS011;20605;49.742;18.802;2022-10-04T17:50:05;22.37;;;12.40;;
32491;SDS011;20605;49.742;18.802;2022-10-04T17:52:58;20.43;;;13.65;;
32491;SDS011;20605;49.742;18.802;2022-10-04T17:55:49;20.15;;;12.80;;
32491;SDS011;20605;49.742;18.802;2022-10-04T17:58:22;155.70;;;90.42;;
32491;SDS011;20605;49.742;18.802;2022-10-04T18:03:39;36.42;;;19.85;;
32491;SDS011;20605;49.742;18.802;2022-10-04T18:06:30;27.82;;;15.20;;
32491;SDS011;20605;49.742;18.802;2022-10-04T18:09:20;21.15;;;12.53;;
32491;SDS011;20605;49.742;18.802;2022-10-04T18:11:51;17.27;;;11.08;;
32491;SDS011;20605;49.742;18.802;2022-10-04T18:14:45;19.20;;;11.20;;
32491;SDS011;20605;49.742;18.802;2022-10-04T18:17:31;27.37;;;12.95;;
32491;SDS011;20605;49.742;18.802;2022-10-04T18:20:17;28.40;;;16.40;;
32491;SDS011;20605;49.742;18.802;2022-10-04T18:22:57;19.05;;;11.93;;
32491;SDS011;20605;49.742;18.802;2022-10-04T18:25:29;24.20;;;13.90;;
32491;SDS011;20605;49.742;18.802;2022-10-04T18:28:31;21.35;;;14.15;;
32491;SDS011;20605;49.742;18.802;2022-10-04T18:33:28;22.55;;;12.33;;
32491;SDS011;20605;49.742;18.802;2022-10-04T18:36:21;21.68;;;13.15;;
32491;SDS011;20605;49.742;18.802;2022-10-04T18:39:00;24.05;;;14.10;;
32491;SDS011;20605;49.742;18.802;2022-10-04T18:41:43;18.25;;;11.73;;
32491;SDS011;20605;49.742;18.802;2022-10-04T18:46:56;16.97;;;10.82;;
32491;SDS011;20605;49.742;18.802;2022-10-04T18:49:26;18.40;;;10.28;;
32491;SDS011;20605;49.742;18.802;2022-10-04T18:58:02;14.85;;;9.68;;
32491;SDS011;20605;49.742;18.802;2022-10-04T19:00:27;15.65;;;10.75;;
32491;SDS011;20605;49.742;18.802;2022-10-04T19:09:09;18.17;;;10.43;;
32491;SDS011;20605;49.742;18.802;2022-10-04T19:17:13;16.40;;;9.75;;
32491;SDS011;20605;49.742;18.802;2022-10-04T19:23:02;20.37;;;9.60;;
32491;SDS011;20605;49.742;18.802;2022-10-04T19:25:46;15.25;;;10.23;;
32491;SDS011;20605;49.742;18.802;2022-10-04T19:28:28;18.90;;;10.32;;
32491;SDS011;20605;49.742;18.802;2022-10-04T19:39:31;18.00;;;9.63;;
32491;SDS011;20605;49.742;18.802;2022-10-04T19:42:11;16.70;;;10.35;;
32491;SDS011;20605;49.742;18.802;2022-10-04T19:53:05;15.25;;;9.20;;
32491;SDS011;20605;49.742;18.802;2022-10-04T20:01:13;20.30;;;11.50;;
32491;SDS011;20605;49.742;18.802;2022-10-04T20:03:40;15.15;;;8.83;;
32491;SDS011;20605;49.742;18.802;2022-10-04T20:06:07;15.63;;;8.80;;
32491;SDS011;20605;49.742;18.802;2022-10-04T20:08:52;16.70;;;8.75;;
32491;SDS011;20605;49.742;18.802;2022-10-04T20:11:25;19.48;;;10.48;;
32491;SDS011;20605;49.742;18.802;2022-10-04T20:19:18;13.32;;;7.30;;
32491;SDS011;20605;49.742;18.802;2022-10-04T20:21:56;16.97;;;9.93;;
32491;SDS011;20605;49.742;18.802;2022-10-04T20:29:57;15.53;;;8.38;;
32491;SDS011;20605;49.742;18.802;2022-10-04T20:35:07;17.85;;;9.00;;
32491;SDS011;20605;49.742;18.802;2022-10-04T20:45:45;14.05;;;7.78;;
32491;SDS011;20605;49.742;18.802;2022-10-04T20:48:19;14.30;;;7.92;;
32491;SDS011;20605;49.742;18.802;2022-10-04T20:50:48;13.10;;;8.40;;
32491;SDS011;20605;49.742;18.802;2022-10-04T20:53:20;20.37;;;10.28;;
32491;SDS011;20605;49.742;18.802;2022-10-04T20:55:50;20.72;;;11.43;;
32491;SDS011;20605;49.742;18.802;2022-10-04T20:58:37;18.67;;;10.03;;
32491;SDS011;20605;49.742;18.802;2022-10-04T21:01:15;18.15;;;9.73;;
32491;SDS011;20605;49.742;18.802;2022-10-04T21:07:17;15.58;;;8.43;;
32491;SDS011;20605;49.742;18.802;2022-10-04T21:20:47;12.50;;;7.45;;
32491;SDS011;20605;49.742;18.802;2022-10-04T21:28:52;12.53;;;7.87;;
32491;SDS011;20605;49.742;18.802;2022-10-04T21:31:24;13.32;;;8.08;;
32491;SDS011;20605;49.742;18.802;2022-10-04T21:33:50;17.95;;;8.20;;
32491;SDS011;20605;49.742;18.802;2022-10-04T21:36:17;14.20;;;8.35;;
32491;SDS011;20605;49.742;18.802;2022-10-04T21:38:45;13.93;;;8.70;;
32491;SDS011;20605;49.742;18.802;2022-10-04T21:41:12;11.30;;;7.62;;
32491;SDS011;20605;49.742;18.802;2022-10-04T21:43:38;14.00;;;8.25;;
32491;SDS011;20605;49.742;18.802;2022-10-04T21:46:05;11.80;;;7.33;;
32491;SDS011;20605;49.742;18.802;2022-10-04T21:48:32;13.88;;;7.72;;
32491;SDS011;20605;49.742;18.802;2022-10-04T21:50:58;13.55;;;7.50;;
32491;SDS011;20605;49.742;18.802;2022-10-04T21:53:25;10.55;;;6.92;;
32491;SDS011;20605;49.742;18.802;2022-10-04T21:55:52;13.90;;;7.58;;
32491;SDS011;20605;49.742;18.802;2022-10-04T21:58:18;13.80;;;7.28;;
32491;SDS011;20605;49.742;18.802;2022-10-04T22:00:45;13.50;;;7.87;;
32491;SDS011;20605;49.742;18.802;2022-10-04T22:03:11;11.75;;;7.62;;
32491;SDS011;20605;49.742;18.802;2022-10-04T22:05:38;14.15;;;7.47;;
32491;SDS011;20605;49.742;18.802;2022-10-04T22:08:04;12.45;;;6.40;;
32491;SDS011;20605;49.742;18.802;2022-10-04T22:10:31;11.53;;;7.20;;
32491;SDS011;20605;49.742;18.802;2022-10-04T22:12:58;11.53;;;6.95;;
32491;SDS011;20605;49.742;18.802;2022-10-04T22:15:25;11.30;;;6.45;;
32491;SDS011;20605;49.742;18.802;2022-10-04T22:17:53;10.63;;;6.33;;
32491;SDS011;20605;49.742;18.802;2022-10-04T22:20:20;14.65;;;6.70;;
32491;SDS011;20605;49.742;18.802;2022-10-04T22:22:48;12.13;;;6.08;;
32491;SDS011;20605;49.742;18.802;2022-10-04T22:25:15;12.35;;;6.78;;
32491;SDS011;20605;49.742;18.802;2022-10-04T22:27:45;12.40;;;6.58;;
32491;SDS011;20605;49.742;18.802;2022-10-04T22:30:34;9.85;;;6.20;;
32491;SDS011;20605;49.742;18.802;2022-10-04T22:32:48;10.90;;;6.20;;
32491;SDS011;20605;49.742;18.802;2022-10-04T22:35:16;13.58;;;6.17;;
32491;SDS011;20605;49.742;18.802;2022-10-04T22:37:45;13.43;;;6.80;;
32491;SDS011;20605;49.742;18.802;2022-10-04T22:40:17;13.18;;;6.45;;
32491;SDS011;20605;49.742;18.802;2022-10-04T22:42:51;11.03;;;5.58;;
32491;SDS011;20605;49.742;18.802;2022-10-04T22:45:21;9.70;;;6.55;;
32491;SDS011;20605;49.742;18.802;2022-10-04T22:47:51;10.05;;;5.28;;
32491;SDS011;20605;49.742;18.802;2022-10-04T22:52:56;10.03;;;6.40;;
32491;SDS011;20605;49.742;18.802;2022-10-04T22:55:29;12.25;;;6.10;;
32491;SDS011;20605;49.742;18.802;2022-10-04T22:57:56;11.93;;;5.17;;
32491;SDS011;20605;49.742;18.802;2022-10-04T23:00:22;12.50;;;5.90;;
32491;SDS011;20605;49.742;18.802;2022-10-04T23:02:49;10.38;;;5.40;;
32491;SDS011;20605;49.742;18.802;2022-10-04T23:05:17;10.70;;;5.37;;
32491;SDS011;20605;49.742;18.802;2022-10-04T23:07:45;10.20;;;5.35;;
32491;SDS011;20605;49.742;18.802;2022-10-04T23:10:14;10.90;;;5.30;;
32491;SDS011;20605;49.742;18.802;2022-10-04T23:12:47;11.97;;;5.42;;
32491;SDS011;20605;49.742;18.802;2022-10-04T23:15:17;11.68;;;5.10;;
32491;SDS011;20605;49.742;18.802;2022-10-04T23:17:49;7.92;;;4.90;;
32491;SDS011;20605;49.742;18.802;2022-10-04T23:20:20;12.73;;;5.37;;
32491;SDS011;20605;49.742;18.802;2022-10-04T23:22:48;12.95;;;5.20;;
32491;SDS011;20605;49.742;18.802;2022-10-04T23:25:18;11.78;;;6.40;;
32491;SDS011;20605;49.742;18.802;2022-10-04T23:27:48;8.05;;;5.03;;
32491;SDS011;20605;49.742;18.802;2022-10-04T23:30:16;9.33;;;6.03;;
32491;SDS011;20605;49.742;18.802;2022-10-04T23:32:46;10.70;;;5.58;;
32491;SDS011;20605;49.742;18.802;2022-10-04T23:35:22;10.15;;;4.95;;
32491;SDS011;20605;49.742;18.802;2022-10-04T23:40:19;12.35;;;5.70;;
32491;SDS011;20605;49.742;18.802;2022-10-04T23:42:48;10.08;;;5.70;;
32491;SDS011;20605;49.742;18.802;2022-10-04T23:45:20;7.58;;;4.97;;
32491;SDS011;20605;49.742;18.802;2022-10-04T23:47:53;8.40;;;4.95;;
32491;SDS011;20605;49.742;18.802;2022-10-04T23:52:55;15.03;;;6.00;;
32491;SDS011;20605;49.742;18.802;2022-10-04T23:55:28;7.50;;;4.75;;
32491;SDS011;20605;49.742;18.802;2022-10-04T23:58:00;8.45;;;5.42;;
